sensor_id;sensor_type;location;lat;lon;timestamp;pressure;altitude;pressure_sealevel;temperature;humidity
21102;BME280;10709;49.006;12.100;2023-03-15T00:01:05;48896.88;;;-146.00;83.71
21102;BME280;10709;49.006;12.100;2023-03-15T00:03:32;48938.03;;;-146.00;84.24
21102;BME280;10709;49.006;12.100;2023-03-15T00:06:03;48930.19;;;-146.00;83.47
21102;BME280;10709;49.006;12.100;2023-03-15T00:08:30;48898.84;;;-146.00;83.28
21102;BME280;10709;49.006;12.100;2023-03-15T00:10:59;48926.25;;;-146.00;83.08
21102;BME280;10709;49.006;12.100;2023-03-15T00:13:26;48914.50;;;-146.00;83.31
21102;BME280;10709;49.006;12.100;2023-03-15T00:15:57;48953.69;;;-146.00;83.13
21102;BME280;10709;49.006;12.100;2023-03-15T00:18:25;48934.09;;;-146.00;83.54
21102;BME280;10709;49.006;12.100;2023-03-15T00:20:51;48914.50;;;-146.00;84.15
21102;BME280;10709;49.006;12.100;2023-03-15T00:23:18;48930.19;;;-146.00;84.55
21102;BME280;10709;49.006;12.100;2023-03-15T00:25:46;48969.38;;;-146.00;84.10
21102;BME280;10709;49.006;12.100;2023-03-15T00:28:13;48949.78;;;-146.00;83.65
21102;BME280;10709;49.006;12.100;2023-03-15T00:30:40;48945.84;;;-146.00;83.56
21102;BME280;10709;49.006;12.100;2023-03-15T00:33:07;48922.34;;;-146.00;84.04
21102;BME280;10709;49.006;12.100;2023-03-15T00:35:38;48928.22;;;-146.00;85.19
21102;BME280;10709;49.006;12.100;2023-03-15T00:38:05;48957.59;;;-146.00;85.66
21102;BME280;10709;49.006;12.100;2023-03-15T00:40:32;48938.03;;;-146.00;86.16
21102;BME280;10709;49.006;12.100;2023-03-15T00:42:58;48955.66;;;-146.00;86.79
21102;BME280;10709;49.006;12.100;2023-03-15T00:45:24;49014.41;;;-146.00;87.41
21102;BME280;10709;49.006;12.100;2023-03-15T00:47:53;48973.28;;;-146.00;88.28
21102;BME280;10709;49.006;12.100;2023-03-15T00:50:21;48992.88;;;-146.00;88.40
21102;BME280;10709;49.006;12.100;2023-03-15T00:52:48;48996.78;;;-146.00;88.72
21102;BME280;10709;49.006;12.100;2023-03-15T00:55:16;49024.22;;;-146.00;88.52
21102;BME280;10709;49.006;12.100;2023-03-15T00:57:44;49000.72;;;-146.00;88.22
21102;BME280;10709;49.006;12.100;2023-03-15T01:00:14;48985.03;;;-146.00;86.56
21102;BME280;10709;49.006;12.100;2023-03-15T01:02:41;49012.47;;;-146.00;86.82
21102;BME280;10709;49.006;12.100;2023-03-15T01:05:09;48979.16;;;-146.00;87.10
21102;BME280;10709;49.006;12.100;2023-03-15T01:07:36;48981.13;;;-146.00;86.77
21102;BME280;10709;49.006;12.100;2023-03-15T01:10:04;49012.47;;;-146.00;87.83
21102;BME280;10709;49.006;12.100;2023-03-15T01:12:32;49002.66;;;-146.00;88.15
21102;BME280;10709;49.006;12.100;2023-03-15T01:15:01;48971.31;;;-146.00;89.18
21102;BME280;10709;49.006;12.100;2023-03-15T01:17:27;49032.06;;;-146.00;89.34
21102;BME280;10709;49.006;12.100;2023-03-15T01:19:54;49016.38;;;-146.00;89.57
21102;BME280;10709;49.006;12.100;2023-03-15T01:22:21;49008.53;;;-146.00;89.51
21102;BME280;10709;49.006;12.100;2023-03-15T01:24:47;49037.94;;;-146.00;91.99
21102;BME280;10709;49.006;12.100;2023-03-15T01:27:14;49022.25;;;-146.00;90.56
21102;BME280;10709;49.006;12.100;2023-03-15T01:29:42;49075.16;;;-146.00;91.52
21102;BME280;10709;49.006;12.100;2023-03-15T01:32:08;49004.63;;;-146.00;91.35
21102;BME280;10709;49.006;12.100;2023-03-15T01:34:35;49016.38;;;-146.00;91.23
21102;BME280;10709;49.006;12.100;2023-03-15T01:37:01;49028.13;;;-146.00;94.39
21102;BME280;10709;49.006;12.100;2023-03-15T01:39:29;49032.06;;;-146.00;95.13
21102;BME280;10709;49.006;12.100;2023-03-15T01:41:56;49039.88;;;-146.00;95.52
21102;BME280;10709;49.006;12.100;2023-03-15T01:44:22;49069.28;;;-146.00;94.05
21102;BME280;10709;49.006;12.100;2023-03-15T01:46:50;49037.94;;;-146.00;94.33
21102;BME280;10709;49.006;12.100;2023-03-15T01:49:24;49028.13;;;-146.00;94.95
21102;BME280;10709;49.006;12.100;2023-03-15T01:51:56;49043.81;;;-146.00;94.66
21102;BME280;10709;49.006;12.100;2023-03-15T01:54:37;49039.88;;;-146.00;94.38
21102;BME280;10709;49.006;12.100;2023-03-15T02:02:22;49057.53;;;-146.00;92.91
21102;BME280;10709;49.006;12.100;2023-03-15T02:05:08;49041.84;;;-146.00;95.58
21102;BME280;10709;49.006;12.100;2023-03-15T02:07:39;49035.97;;;-146.00;94.96
21102;BME280;10709;49.006;12.100;2023-03-15T02:10:19;49055.56;;;-146.00;94.92
21102;BME280;10709;49.006;12.100;2023-03-15T02:12:50;49053.59;;;-146.00;95.25
21102;BME280;10709;49.006;12.100;2023-03-15T02:15:17;48996.78;;;-146.00;95.18
21102;BME280;10709;49.006;12.100;2023-03-15T02:17:45;49043.81;;;-146.00;94.96
21102;BME280;10709;49.006;12.100;2023-03-15T02:20:18;49024.22;;;-146.00;93.81
21102;BME280;10709;49.006;12.100;2023-03-15T02:22:56;49051.66;;;-146.00;92.87
21102;BME280;10709;49.006;12.100;2023-03-15T02:27:50;49032.06;;;-146.00;93.21
21102;BME280;10709;49.006;12.100;2023-03-15T02:30:17;49032.06;;;-146.00;92.92
21102;BME280;10709;49.006;12.100;2023-03-15T02:32:43;49032.06;;;-146.00;92.94
21102;BME280;10709;49.006;12.100;2023-03-15T02:35:10;49035.97;;;-146.00;93.31
21102;BME280;10709;49.006;12.100;2023-03-15T02:37:37;49028.13;;;-146.00;93.07
21102;BME280;10709;49.006;12.100;2023-03-15T02:40:16;49047.72;;;-146.00;92.86
21102;BME280;10709;49.006;12.100;2023-03-15T02:42:49;49024.22;;;-146.00;91.95
21102;BME280;10709;49.006;12.100;2023-03-15T02:45:19;49016.38;;;-146.00;92.62
21102;BME280;10709;49.006;12.100;2023-03-15T02:47:46;49012.47;;;-146.00;92.20
21102;BME280;10709;49.006;12.100;2023-03-15T02:50:14;48988.94;;;-146.00;92.41
21102;BME280;10709;49.006;12.100;2023-03-15T02:52:41;49035.97;;;-146.00;93.57
21102;BME280;10709;49.006;12.100;2023-03-15T02:55:07;49043.81;;;-146.00;94.25
21102;BME280;10709;49.006;12.100;2023-03-15T02:57:34;49032.06;;;-146.00;94.37
21102;BME280;10709;49.006;12.100;2023-03-15T03:00:01;49012.47;;;-146.00;93.98
21102;BME280;10709;49.006;12.100;2023-03-15T03:02:37;49020.31;;;-146.00;94.13
21102;BME280;10709;49.006;12.100;2023-03-15T03:05:04;49051.66;;;-146.00;94.11
21102;BME280;10709;49.006;12.100;2023-03-15T03:07:30;49026.19;;;-146.00;93.23
21102;BME280;10709;49.006;12.100;2023-03-15T03:09:57;49032.06;;;-146.00;95.65
21102;BME280;10709;49.006;12.100;2023-03-15T03:12:23;49035.97;;;-146.00;95.60
21102;BME280;10709;49.006;12.100;2023-03-15T03:14:50;48996.78;;;-146.00;98.76
21102;BME280;10709;49.006;12.100;2023-03-15T03:17:16;49008.53;;;-146.00;99.77
21102;BME280;10709;49.006;12.100;2023-03-15T03:19:43;49028.13;;;-146.00;99.51
21102;BME280;10709;49.006;12.100;2023-03-15T03:22:09;49024.22;;;-146.00;99.17
21102;BME280;10709;49.006;12.100;2023-03-15T03:24:38;49008.53;;;-146.00;100.00
21102;BME280;10709;49.006;12.100;2023-03-15T03:27:05;49008.53;;;-146.00;100.00
21102;BME280;10709;49.006;12.100;2023-03-15T03:29:31;48996.78;;;-146.00;100.00
21102;BME280;10709;49.006;12.100;2023-03-15T03:31:57;48969.38;;;-146.00;100.00
21102;BME280;10709;49.006;12.100;2023-03-15T03:34:26;49010.50;;;-146.00;100.00
21102;BME280;10709;49.006;12.100;2023-03-15T03:36:52;48992.88;;;-146.00;99.48
21102;BME280;10709;49.006;12.100;2023-03-15T03:39:19;49008.53;;;-146.00;98.22
21102;BME280;10709;49.006;12.100;2023-03-15T03:41:45;49016.38;;;-146.00;97.35
21102;BME280;10709;49.006;12.100;2023-03-15T03:44:11;49045.78;;;-146.00;96.88
21102;BME280;10709;49.006;12.100;2023-03-15T03:46:38;49008.53;;;-146.00;99.18
21102;BME280;10709;49.006;12.100;2023-03-15T03:49:05;49020.31;;;-146.00;99.00
21102;BME280;10709;49.006;12.100;2023-03-15T03:51:31;49020.31;;;-146.00;98.52
21102;BME280;10709;49.006;12.100;2023-03-15T03:54:00;49020.31;;;-146.00;98.23
21102;BME280;10709;49.006;12.100;2023-03-15T03:56:27;49008.53;;;-146.00;100.00
21102;BME280;10709;49.006;12.100;2023-03-15T03:58:54;49002.66;;;-146.00;100.00
21102;BME280;10709;49.006;12.100;2023-03-15T04:01:20;48998.75;;;-146.00;100.00
21102;BME280;10709;49.006;12.100;2023-03-15T04:03:48;48988.94;;;-146.00;100.00
21102;BME280;10709;49.006;12.100;2023-03-15T04:06:14;49020.31;;;-146.00;99.01
21102;BME280;10709;49.006;12.100;2023-03-15T04:08:41;49008.53;;;-146.00;97.93
21102;BME280;10709;49.006;12.100;2023-03-15T04:11:08;49032.06;;;-146.00;98.27
21102;BME280;10709;49.006;12.100;2023-03-15T04:13:34;49004.63;;;-146.00;99.57
21102;BME280;10709;49.006;12.100;2023-03-15T04:16:01;49002.66;;;-146.00;100.00
21102;BME280;10709;49.006;12.100;2023-03-15T04:18:29;48981.13;;;-146.00;99.85
21102;BME280;10709;49.006;12.100;2023-03-15T04:20:55;49028.13;;;-146.00;99.26
21102;BME280;10709;49.006;12.100;2023-03-15T04:23:22;49016.38;;;-146.00;98.33
21102;BME280;10709;49.006;12.100;2023-03-15T04:25:52;49028.13;;;-146.00;99.04
21102;BME280;10709;49.006;12.100;2023-03-15T04:28:20;49008.53;;;-146.00;97.60
21102;BME280;10709;49.006;12.100;2023-03-15T04:30:49;49008.53;;;-146.00;98.43
21102;BME280;10709;49.006;12.100;2023-03-15T04:33:15;49008.53;;;-146.00;98.93
21102;BME280;10709;49.006;12.100;2023-03-15T04:35:42;49012.47;;;-146.00;98.26
21102;BME280;10709;49.006;12.100;2023-03-15T04:38:08;49012.47;;;-146.00;98.54
21102;BME280;10709;49.006;12.100;2023-03-15T04:40:35;49000.72;;;-146.00;98.19
21102;BME280;10709;49.006;12.100;2023-03-15T04:43:03;48985.03;;;-146.00;98.30
21102;BME280;10709;49.006;12.100;2023-03-15T04:45:30;49012.47;;;-146.00;99.14
21102;BME280;10709;49.006;12.100;2023-03-15T04:47:57;49012.47;;;-146.00;99.71
21102;BME280;10709;49.006;12.100;2023-03-15T04:50:24;49016.38;;;-146.00;99.19
21102;BME280;10709;49.006;12.100;2023-03-15T04:52:51;49024.22;;;-146.00;99.40
21102;BME280;10709;49.006;12.100;2023-03-15T04:55:17;49016.38;;;-146.00;99.51
21102;BME280;10709;49.006;12.100;2023-03-15T04:57:44;49002.66;;;-146.00;98.87
21102;BME280;10709;49.006;12.100;2023-03-15T05:00:11;49028.13;;;-146.00;98.17
21102;BME280;10709;49.006;12.100;2023-03-15T05:02:39;48992.88;;;-146.00;98.47
21102;BME280;10709;49.006;12.100;2023-03-15T05:05:07;48985.03;;;-146.00;100.00
21102;BME280;10709;49.006;12.100;2023-03-15T05:07:35;49000.72;;;-146.00;99.47
21102;BME280;10709;49.006;12.100;2023-03-15T05:10:02;49020.31;;;-146.00;100.00
21102;BME280;10709;49.006;12.100;2023-03-15T05:12:30;49018.34;;;-146.00;99.55
21102;BME280;10709;49.006;12.100;2023-03-15T05:14:57;48994.84;;;-146.00;99.96
21102;BME280;10709;49.006;12.100;2023-03-15T05:17:23;49028.13;;;-146.00;99.99
21102;BME280;10709;49.006;12.100;2023-03-15T05:19:50;49016.38;;;-146.00;100.00
21102;BME280;10709;49.006;12.100;2023-03-15T05:22:17;49004.63;;;-146.00;100.00
21102;BME280;10709;49.006;12.100;2023-03-15T05:24:44;49004.63;;;-146.00;100.00
21102;BME280;10709;49.006;12.100;2023-03-15T05:27:11;49016.38;;;-146.00;100.00
21102;BME280;10709;49.006;12.100;2023-03-15T05:29:38;49006.59;;;-146.00;100.00
21102;BME280;10709;49.006;12.100;2023-03-15T05:32:05;49016.38;;;-146.00;100.00
21102;BME280;10709;49.006;12.100;2023-03-15T05:34:31;48996.78;;;-146.00;100.00
21102;BME280;10709;49.006;12.100;2023-03-15T05:36:58;48988.94;;;-146.00;100.00
21102;BME280;10709;49.006;12.100;2023-03-15T05:39:25;49010.50;;;-146.00;99.93
21102;BME280;10709;49.006;12.100;2023-03-15T05:41:51;49004.63;;;-146.00;99.00
21102;BME280;10709;49.006;12.100;2023-03-15T05:44:18;49008.53;;;-146.00;100.00
21102;BME280;10709;49.006;12.100;2023-03-15T05:46:44;48996.78;;;-146.00;100.00
21102;BME280;10709;49.006;12.100;2023-03-15T05:49:11;49000.72;;;-146.00;98.38
21102;BME280;10709;49.006;12.100;2023-03-15T05:51:37;49035.97;;;-146.00;98.08
21102;BME280;10709;49.006;12.100;2023-03-15T05:54:03;49008.53;;;-146.00;97.58
21102;BME280;10709;49.006;12.100;2023-03-15T05:56:30;49035.97;;;-146.00;97.53
21102;BME280;10709;49.006;12.100;2023-03-15T05:58:56;49000.72;;;-146.00;96.95
21102;BME280;10709;49.006;12.100;2023-03-15T06:01:23;49035.97;;;-146.00;96.77
21102;BME280;10709;49.006;12.100;2023-03-15T06:03:49;49008.53;;;-146.00;96.28
21102;BME280;10709;49.006;12.100;2023-03-15T06:06:16;49016.38;;;-146.00;97.09
21102;BME280;10709;49.006;12.100;2023-03-15T06:08:42;49016.38;;;-146.00;97.82
21102;BME280;10709;49.006;12.100;2023-03-15T06:11:09;49020.31;;;-146.00;96.37
21102;BME280;10709;49.006;12.100;2023-03-15T06:13:35;49028.13;;;-146.00;95.10
21102;BME280;10709;49.006;12.100;2023-03-15T06:16:02;49004.63;;;-146.00;94.72
21102;BME280;10709;49.006;12.100;2023-03-15T06:18:28;49012.47;;;-146.00;94.14
21102;BME280;10709;49.006;12.100;2023-03-15T06:20:54;49028.13;;;-146.00;95.25
21102;BME280;10709;49.006;12.100;2023-03-15T06:23:21;49032.06;;;-146.00;92.94
21102;BME280;10709;49.006;12.100;2023-03-15T06:25:48;48992.88;;;-146.00;93.56
21102;BME280;10709;49.006;12.100;2023-03-15T06:28:14;49028.13;;;-146.00;93.60
21102;BME280;10709;49.006;12.100;2023-03-15T06:30:41;49028.13;;;-146.00;94.44
21102;BME280;10709;49.006;12.100;2023-03-15T06:33:07;49024.22;;;-146.00;92.87
21102;BME280;10709;49.006;12.100;2023-03-15T06:35:34;49000.72;;;-146.00;92.59
21102;BME280;10709;49.006;12.100;2023-03-15T06:38:00;49020.31;;;-146.00;92.14
21102;BME280;10709;49.006;12.100;2023-03-15T06:40:27;49000.72;;;-146.00;90.57
21102;BME280;10709;49.006;12.100;2023-03-15T06:42:53;49051.66;;;-146.00;90.80
21102;BME280;10709;49.006;12.100;2023-03-15T06:45:19;49016.38;;;-146.00;90.84
21102;BME280;10709;49.006;12.100;2023-03-15T06:47:46;49047.72;;;-146.00;90.71
21102;BME280;10709;49.006;12.100;2023-03-15T06:50:13;49024.22;;;-146.00;89.80
21102;BME280;10709;49.006;12.100;2023-03-15T06:52:39;48971.31;;;-146.00;88.58
21102;BME280;10709;49.006;12.100;2023-03-15T06:55:06;49016.38;;;-146.00;87.87
21102;BME280;10709;49.006;12.100;2023-03-15T06:57:32;49004.63;;;-146.00;87.61
21102;BME280;10709;49.006;12.100;2023-03-15T06:59:58;48938.03;;;-146.00;85.15
21102;BME280;10709;49.006;12.100;2023-03-15T07:02:25;48985.03;;;-146.00;86.45
21102;BME280;10709;49.006;12.100;2023-03-15T07:04:52;48922.34;;;-146.00;85.14
21102;BME280;10709;49.006;12.100;2023-03-15T07:07:18;48934.09;;;-146.00;86.06
21102;BME280;10709;49.006;12.100;2023-03-15T07:09:45;48918.44;;;-146.00;83.71
21102;BME280;10709;49.006;12.100;2023-03-15T07:12:11;48926.25;;;-146.00;85.22
21102;BME280;10709;49.006;12.100;2023-03-15T07:14:38;48941.94;;;-146.00;85.88
21102;BME280;10709;49.006;12.100;2023-03-15T07:17:04;48916.47;;;-146.00;85.25
21102;BME280;10709;49.006;12.100;2023-03-15T07:19:31;48926.25;;;-146.00;85.45
21102;BME280;10709;49.006;12.100;2023-03-15T07:21:57;48894.91;;;-146.00;83.43
21102;BME280;10709;49.006;12.100;2023-03-15T07:24:24;48906.69;;;-146.00;83.70
21102;BME280;10709;49.006;12.100;2023-03-15T07:26:50;48894.91;;;-146.00;84.01
21102;BME280;10709;49.006;12.100;2023-03-15T07:29:22;48883.16;;;-146.00;83.21
21102;BME280;10709;49.006;12.100;2023-03-15T07:31:49;48836.16;;;-146.00;80.41
21102;BME280;10709;49.006;12.100;2023-03-15T07:34:16;48832.22;;;-146.00;80.97
21102;BME280;10709;49.006;12.100;2023-03-15T07:36:43;48828.31;;;-146.00;81.82
21102;BME280;10709;49.006;12.100;2023-03-15T07:39:09;48851.81;;;-146.00;81.89
21102;BME280;10709;49.006;12.100;2023-03-15T07:41:35;48832.22;;;-146.00;80.91
21102;BME280;10709;49.006;12.100;2023-03-15T07:44:02;48859.66;;;-146.00;82.77
21102;BME280;10709;49.006;12.100;2023-03-15T07:46:28;48883.16;;;-146.00;83.30
21102;BME280;10709;49.006;12.100;2023-03-15T07:48:56;48863.56;;;-146.00;83.06
21102;BME280;10709;49.006;12.100;2023-03-15T07:51:22;48898.84;;;-146.00;83.54
21102;BME280;10709;49.006;12.100;2023-03-15T07:53:49;48861.63;;;-146.00;83.00
21102;BME280;10709;49.006;12.100;2023-03-15T07:56:16;48836.16;;;-146.00;81.47
21102;BME280;10709;49.006;12.100;2023-03-15T07:58:43;48832.22;;;-146.00;79.97
21102;BME280;10709;49.006;12.100;2023-03-15T08:01:09;48800.88;;;-146.00;77.24
21102;BME280;10709;49.006;12.100;2023-03-15T08:03:36;48800.88;;;-146.00;78.16
21102;BME280;10709;49.006;12.100;2023-03-15T08:06:02;48793.06;;;-146.00;77.44
21102;BME280;10709;49.006;12.100;2023-03-15T08:08:29;48789.13;;;-146.00;78.63
21102;BME280;10709;49.006;12.100;2023-03-15T08:10:55;48808.72;;;-146.00;77.20
21102;BME280;10709;49.006;12.100;2023-03-15T08:13:23;48789.13;;;-146.00;79.21
21102;BME280;10709;49.006;12.100;2023-03-15T08:15:49;48785.22;;;-146.00;76.25
21102;BME280;10709;49.006;12.100;2023-03-15T08:18:16;48787.19;;;-146.00;77.42
21102;BME280;10709;49.006;12.100;2023-03-15T08:20:43;48777.38;;;-146.00;77.39
21102;BME280;10709;49.006;12.100;2023-03-15T08:23:09;48798.94;;;-146.00;76.81
21102;BME280;10709;49.006;12.100;2023-03-15T08:25:42;48796.97;;;-146.00;77.62
21102;BME280;10709;49.006;12.100;2023-03-15T08:28:10;48812.63;;;-146.00;77.77
21102;BME280;10709;49.006;12.100;2023-03-15T08:30:36;48781.31;;;-146.00;77.20
21102;BME280;10709;49.006;12.100;2023-03-15T08:33:03;48787.19;;;-146.00;77.90
21102;BME280;10709;49.006;12.100;2023-03-15T08:35:30;48804.81;;;-146.00;78.32
21102;BME280;10709;49.006;12.100;2023-03-15T08:37:58;48781.31;;;-146.00;76.33
21102;BME280;10709;49.006;12.100;2023-03-15T08:40:25;48798.94;;;-146.00;77.14
21102;BME280;10709;49.006;12.100;2023-03-15T08:42:52;48781.31;;;-146.00;75.72
21102;BME280;10709;49.006;12.100;2023-03-15T08:45:20;48789.13;;;-146.00;77.72
21102;BME280;10709;49.006;12.100;2023-03-15T08:47:46;48791.09;;;-146.00;77.65
21102;BME280;10709;49.006;12.100;2023-03-15T08:50:14;48789.13;;;-146.00;78.25
21102;BME280;10709;49.006;12.100;2023-03-15T08:52:42;48808.72;;;-146.00;77.42
21102;BME280;10709;49.006;12.100;2023-03-15T08:55:09;48785.22;;;-146.00;76.61
21102;BME280;10709;49.006;12.100;2023-03-15T08:57:40;48781.31;;;-146.00;77.81
21102;BME280;10709;49.006;12.100;2023-03-15T09:00:08;48777.38;;;-146.00;74.79
21102;BME280;10709;49.006;12.100;2023-03-15T09:02:35;48769.53;;;-146.00;74.52
21102;BME280;10709;49.006;12.100;2023-03-15T09:05:03;48726.44;;;-146.00;72.05
21102;BME280;10709;49.006;12.100;2023-03-15T09:07:32;48761.72;;;-146.00;72.27
21102;BME280;10709;49.006;12.100;2023-03-15T09:09:59;48714.69;;;-146.00;71.31
21102;BME280;10709;49.006;12.100;2023-03-15T09:12:27;48730.38;;;-146.00;73.05
21102;BME280;10709;49.006;12.100;2023-03-15T09:14:53;48726.44;;;-146.00;73.07
21102;BME280;10709;49.006;12.100;2023-03-15T09:17:20;48734.28;;;-146.00;72.96
21102;BME280;10709;49.006;12.100;2023-03-15T09:19:47;48738.19;;;-146.00;70.19
21102;BME280;10709;49.006;12.100;2023-03-15T09:22:13;48722.53;;;-146.00;70.12
21102;BME280;10709;49.006;12.100;2023-03-15T09:24:59;48730.38;;;-146.00;71.00
21102;BME280;10709;49.006;12.100;2023-03-15T09:27:29;48730.38;;;-146.00;70.76
21102;BME280;10709;49.006;12.100;2023-03-15T09:29:55;48730.38;;;-146.00;71.29
21102;BME280;10709;49.006;12.100;2023-03-15T09:32:22;48708.81;;;-146.00;70.49
21102;BME280;10709;49.006;12.100;2023-03-15T09:34:48;48712.72;;;-146.00;67.84
21102;BME280;10709;49.006;12.100;2023-03-15T09:37:15;48720.56;;;-146.00;65.87
21102;BME280;10709;49.006;12.100;2023-03-15T09:39:41;48691.19;;;-146.00;66.25
21102;BME280;10709;49.006;12.100;2023-03-15T09:48:34;48691.19;;;-146.00;64.66
21102;BME280;10709;49.006;12.100;2023-03-15T09:53:47;48718.59;;;-146.00;63.96
21102;BME280;10709;49.006;12.100;2023-03-15T09:56:26;48706.84;;;-146.00;63.60
21102;BME280;10709;49.006;12.100;2023-03-15T09:58:57;48706.84;;;-146.00;64.12
21102;BME280;10709;49.006;12.100;2023-03-15T10:01:30;48706.84;;;-146.00;64.79
21102;BME280;10709;49.006;12.100;2023-03-15T10:04:03;48708.81;;;-146.00;64.09
21102;BME280;10709;49.006;12.100;2023-03-15T10:06:33;48693.16;;;-146.00;64.53
21102;BME280;10709;49.006;12.100;2023-03-15T10:09:14;48706.84;;;-146.00;62.72
21102;BME280;10709;49.006;12.100;2023-03-15T10:16:47;48699.03;;;-146.00;59.97
21102;BME280;10709;49.006;12.100;2023-03-15T10:25:03;48683.34;;;-146.00;59.77
21102;BME280;10709;49.006;12.100;2023-03-15T10:27:41;48706.84;;;-146.00;61.08
21102;BME280;10709;49.006;12.100;2023-03-15T10:30:32;48695.09;;;-146.00;60.15
21102;BME280;10709;49.006;12.100;2023-03-15T10:33:29;48710.78;;;-146.00;60.60
21102;BME280;10709;49.006;12.100;2023-03-15T10:35:58;48699.03;;;-146.00;60.52
21102;BME280;10709;49.006;12.100;2023-03-15T10:38:37;48706.84;;;-146.00;60.26
21102;BME280;10709;49.006;12.100;2023-03-15T10:41:05;48695.09;;;-146.00;59.10
21102;BME280;10709;49.006;12.100;2023-03-15T10:43:33;48687.28;;;-146.00;59.28
21102;BME280;10709;49.006;12.100;2023-03-15T10:46:20;48702.94;;;-146.00;59.06
21102;BME280;10709;49.006;12.100;2023-03-15T10:51:39;48702.94;;;-146.00;59.41
21102;BME280;10709;49.006;12.100;2023-03-15T10:54:21;48695.09;;;-146.00;59.19
21102;BME280;10709;49.006;12.100;2023-03-15T10:57:12;48695.09;;;-146.00;58.89
21102;BME280;10709;49.006;12.100;2023-03-15T10:59:54;48697.06;;;-146.00;58.68
21102;BME280;10709;49.006;12.100;2023-03-15T11:02:24;48683.34;;;-146.00;57.73
21102;BME280;10709;49.006;12.100;2023-03-15T11:07:27;48695.09;;;-146.00;57.66
21102;BME280;10709;49.006;12.100;2023-03-15T11:09:58;48702.94;;;-146.00;57.48
21102;BME280;10709;49.006;12.100;2023-03-15T11:12:27;48702.94;;;-146.00;58.20
21102;BME280;10709;49.006;12.100;2023-03-15T11:15:12;48700.97;;;-146.00;56.56
21102;BME280;10709;49.006;12.100;2023-03-15T11:17:45;48697.06;;;-146.00;56.95
21102;BME280;10709;49.006;12.100;2023-03-15T11:20:28;48699.03;;;-146.00;56.31
21102;BME280;10709;49.006;12.100;2023-03-15T11:22:58;48693.16;;;-146.00;56.01
21102;BME280;10709;49.006;12.100;2023-03-15T11:25:28;48699.03;;;-146.00;56.18
21102;BME280;10709;49.006;12.100;2023-03-15T11:27:56;48689.22;;;-146.00;56.03
21102;BME280;10709;49.006;12.100;2023-03-15T11:30:27;48693.16;;;-146.00;56.20
21102;BME280;10709;49.006;12.100;2023-03-15T11:32:57;48695.09;;;-146.00;56.53
21102;BME280;10709;49.006;12.100;2023-03-15T11:35:45;48683.34;;;-146.00;56.94
21102;BME280;10709;49.006;12.100;2023-03-15T11:38:20;48712.72;;;-146.00;54.76
21102;BME280;10709;49.006;12.100;2023-03-15T11:40:53;48706.84;;;-146.00;56.15
21102;BME280;10709;49.006;12.100;2023-03-15T11:43:26;48695.09;;;-146.00;55.99
21102;BME280;10709;49.006;12.100;2023-03-15T11:46:02;48714.69;;;-146.00;56.10
21102;BME280;10709;49.006;12.100;2023-03-15T11:48:37;48683.34;;;-146.00;56.62
21102;BME280;10709;49.006;12.100;2023-03-15T11:51:07;48710.78;;;-146.00;56.65
21102;BME280;10709;49.006;12.100;2023-03-15T11:53:42;48683.34;;;-146.00;57.19
21102;BME280;10709;49.006;12.100;2023-03-15T11:59:11;48704.91;;;-146.00;55.78
21102;BME280;10709;49.006;12.100;2023-03-15T12:01:48;48675.50;;;-146.00;55.32
21102;BME280;10709;49.006;12.100;2023-03-15T12:07:01;48697.06;;;-146.00;56.55
21102;BME280;10709;49.006;12.100;2023-03-15T12:12:00;48706.84;;;-146.00;55.14
21102;BME280;10709;49.006;12.100;2023-03-15T12:14:28;48689.22;;;-146.00;54.76
21102;BME280;10709;49.006;12.100;2023-03-15T12:22:29;48677.47;;;-146.00;54.52
21102;BME280;10709;49.006;12.100;2023-03-15T12:24:57;48697.06;;;-146.00;54.83
21102;BME280;10709;49.006;12.100;2023-03-15T12:27:27;48683.34;;;-146.00;55.33
21102;BME280;10709;49.006;12.100;2023-03-15T12:29:59;48710.78;;;-146.00;55.64
21102;BME280;10709;49.006;12.100;2023-03-15T12:32:28;48699.03;;;-146.00;54.05
21102;BME280;10709;49.006;12.100;2023-03-15T12:34:57;48693.16;;;-146.00;53.72
21102;BME280;10709;49.006;12.100;2023-03-15T12:37:40;48726.44;;;-146.00;53.59
21102;BME280;10709;49.006;12.100;2023-03-15T12:53:02;48700.97;;;-146.00;53.80
21102;BME280;10709;49.006;12.100;2023-03-15T12:55:33;48726.44;;;-146.00;52.17
21102;BME280;10709;49.006;12.100;2023-03-15T12:58:01;48699.03;;;-146.00;53.28
21102;BME280;10709;49.006;12.100;2023-03-15T13:00:29;48710.78;;;-146.00;53.23
21102;BME280;10709;49.006;12.100;2023-03-15T13:08:54;48710.78;;;-146.00;54.43
21102;BME280;10709;49.006;12.100;2023-03-15T13:11:53;48720.56;;;-146.00;55.14
21102;BME280;10709;49.006;12.100;2023-03-15T13:17:09;48699.03;;;-146.00;55.67
21102;BME280;10709;49.006;12.100;2023-03-15T13:19:45;48714.69;;;-146.00;56.48
21102;BME280;10709;49.006;12.100;2023-03-15T13:22:40;48718.59;;;-146.00;56.04
21102;BME280;10709;49.006;12.100;2023-03-15T13:25:36;48714.69;;;-146.00;57.09
21102;BME280;10709;49.006;12.100;2023-03-15T13:28:10;48714.69;;;-146.00;56.90
21102;BME280;10709;49.006;12.100;2023-03-15T13:30:45;48714.69;;;-146.00;58.33
21102;BME280;10709;49.006;12.100;2023-03-15T13:33:18;48685.31;;;-146.00;57.74
21102;BME280;10709;49.006;12.100;2023-03-15T13:38:34;48691.19;;;-146.00;57.73
21102;BME280;10709;49.006;12.100;2023-03-15T13:41:15;48702.94;;;-146.00;58.27
21102;BME280;10709;49.006;12.100;2023-03-15T13:43:42;48691.19;;;-146.00;59.24
21102;BME280;10709;49.006;12.100;2023-03-15T13:46:09;48687.28;;;-146.00;59.30
21102;BME280;10709;49.006;12.100;2023-03-15T13:48:40;48710.78;;;-146.00;59.42
21102;BME280;10709;49.006;12.100;2023-03-15T13:51:19;48710.78;;;-146.00;60.25